sensor_id;sensor_type;location;lat;lon;timestamp;temperature;humidity
31542;DHT22;18152;49.986;8.646;2023-10-13T00:01:56;15.40;99.90
31542;DHT22;18152;49.986;8.646;2023-10-13T00:04:27;15.50;99.90
31542;DHT22;18152;49.986;8.646;2023-10-13T00:06:53;15.40;99.90
31542;DHT22;18152;49.986;8.646;2023-10-13T00:09:20;15.40;99.90
31542;DHT22;18152;49.986;8.646;2023-10-13T00:11:53;15.40;99.90
31542;DHT22;18152;49.986;8.646;2023-10-13T00:14:19;15.40;99.90
31542;DHT22;18152;49.986;8.646;2023-10-13T00:16:56;15.50;99.90
31542;DHT22;18152;49.986;8.646;2023-10-13T00:19:31;15.50;99.90
31542;DHT22;18152;49.986;8.646;2023-10-13T00:22:13;15.60;99.90
31542;DHT22;18152;49.986;8.646;2023-10-13T00:24:43;15.60;99.90
31542;DHT22;18152;49.986;8.646;2023-10-13T00:27:13;15.70;99.90
31542;DHT22;18152;49.986;8.646;2023-10-13T00:30:01;15.70;99.90
31542;DHT22;18152;49.986;8.646;2023-10-13T00:32:43;15.80;99.90
31542;DHT22;18152;49.986;8.646;2023-10-13T00:35:11;15.80;99.90
31542;DHT22;18152;49.986;8.646;2023-10-13T00:37:40;15.80;99.90
31542;DHT22;18152;49.986;8.646;2023-10-13T00:40:11;15.80;99.90
31542;DHT22;18152;49.986;8.646;2023-10-13T00:42:52;15.90;99.90
31542;DHT22;18152;49.986;8.646;2023-10-13T00:45:17;15.90;99.90
31542;DHT22;18152;49.986;8.646;2023-10-13T00:47:44;15.80;99.90
31542;DHT22;18152;49.986;8.646;2023-10-13T00:50:15;15.80;99.90
31542;DHT22;18152;49.986;8.646;2023-10-13T00:52:43;15.80;99.90
31542;DHT22;18152;49.986;8.646;2023-10-13T00:55:13;15.90;99.90
31542;DHT22;18152;49.986;8.646;2023-10-13T00:57:40;15.80;99.90
31542;DHT22;18152;49.986;8.646;2023-10-13T01:00:06;15.90;99.90
31542;DHT22;18152;49.986;8.646;2023-10-13T01:02:45;15.80;99.90
31542;DHT22;18152;49.986;8.646;2023-10-13T01:05:19;15.80;99.90
31542;DHT22;18152;49.986;8.646;2023-10-13T01:07:46;15.80;99.90
31542;DHT22;18152;49.986;8.646;2023-10-13T01:10:18;15.80;99.90
31542;DHT22;18152;49.986;8.646;2023-10-13T01:12:45;15.70;99.90
31542;DHT22;18152;49.986;8.646;2023-10-13T01:15:12;15.70;99.90
31542;DHT22;18152;49.986;8.646;2023-10-13T01:17:42;15.70;99.90
31542;DHT22;18152;49.986;8.646;2023-10-13T01:20:12;15.70;99.90
31542;DHT22;18152;49.986;8.646;2023-10-13T01:22:45;15.70;99.90
31542;DHT22;18152;49.986;8.646;2023-10-13T01:25:21;15.70;99.90
31542;DHT22;18152;49.986;8.646;2023-10-13T01:27:51;15.70;99.90
31542;DHT22;18152;49.986;8.646;2023-10-13T01:30:17;15.60;99.90
31542;DHT22;18152;49.986;8.646;2023-10-13T01:32:49;15.60;99.90
31542;DHT22;18152;49.986;8.646;2023-10-13T01:35:16;15.60;99.90
31542;DHT22;18152;49.986;8.646;2023-10-13T01:37:44;15.60;99.90
31542;DHT22;18152;49.986;8.646;2023-10-13T01:40:11;15.60;99.90
31542;DHT22;18152;49.986;8.646;2023-10-13T01:42:38;15.50;99.90
31542;DHT22;18152;49.986;8.646;2023-10-13T01:45:04;15.60;99.90
31542;DHT22;18152;49.986;8.646;2023-10-13T01:47:33;15.50;99.90
31542;DHT22;18152;49.986;8.646;2023-10-13T01:49:59;15.50;99.90
31542;DHT22;18152;49.986;8.646;2023-10-13T01:52:38;15.60;99.90
31542;DHT22;18152;49.986;8.646;2023-10-13T01:55:04;15.50;99.90
31542;DHT22;18152;49.986;8.646;2023-10-13T01:57:32;15.50;99.90
31542;DHT22;18152;49.986;8.646;2023-10-13T01:59:58;15.50;99.90
31542;DHT22;18152;49.986;8.646;2023-10-13T02:02:29;15.60;99.90
31542;DHT22;18152;49.986;8.646;2023-10-13T02:04:55;15.50;99.90
31542;DHT22;18152;49.986;8.646;2023-10-13T02:07:27;15.50;99.90
31542;DHT22;18152;49.986;8.646;2023-10-13T02:09:58;15.60;99.90
31542;DHT22;18152;49.986;8.646;2023-10-13T02:12:24;15.60;99.90
31542;DHT22;18152;49.986;8.646;2023-10-13T02:15:09;15.60;99.90
31542;DHT22;18152;49.986;8.646;2023-10-13T02:17:38;15.60;99.90
31542;DHT22;18152;49.986;8.646;2023-10-13T02:20:08;15.60;99.90
31542;DHT22;18152;49.986;8.646;2023-10-13T02:22:39;15.60;99.90
31542;DHT22;18152;49.986;8.646;2023-10-13T02:25:17;15.60;99.90
31542;DHT22;18152;49.986;8.646;2023-10-13T02:28:00;15.60;99.90
31542;DHT22;18152;49.986;8.646;2023-10-13T02:30:26;15.60;99.90
31542;DHT22;18152;49.986;8.646;2023-10-13T02:32:54;15.60;99.90
31542;DHT22;18152;49.986;8.646;2023-10-13T02:35:21;15.60;99.90
31542;DHT22;18152;49.986;8.646;2023-10-13T02:37:55;15.60;99.90
31542;DHT22;18152;49.986;8.646;2023-10-13T02:40:22;15.50;99.90
31542;DHT22;18152;49.986;8.646;2023-10-13T02:42:48;15.60;99.90
31542;DHT22;18152;49.986;8.646;2023-10-13T02:45:14;15.60;99.90
31542;DHT22;18152;49.986;8.646;2023-10-13T02:47:40;15.60;99.90
31542;DHT22;18152;49.986;8.646;2023-10-13T02:50:09;15.60;99.90
31542;DHT22;18152;49.986;8.646;2023-10-13T02:52:38;15.50;99.90
31542;DHT22;18152;49.986;8.646;2023-10-13T02:55:07;15.50;99.90
31542;DHT22;18152;49.986;8.646;2023-10-13T02:57:36;15.40;99.90
31542;DHT22;18152;49.986;8.646;2023-10-13T03:00:01;15.40;99.90
31542;DHT22;18152;49.986;8.646;2023-10-13T03:02:41;15.30;99.90
31542;DHT22;18152;49.986;8.646;2023-10-13T03:05:13;15.40;99.90
31542;DHT22;18152;49.986;8.646;2023-10-13T03:07:39;15.40;99.90
31542;DHT22;18152;49.986;8.646;2023-10-13T03:10:09;15.30;99.90
31542;DHT22;18152;49.986;8.646;2023-10-13T03:12:36;15.30;99.90
31542;DHT22;18152;49.986;8.646;2023-10-13T03:15:03;15.20;99.90
31542;DHT22;18152;49.986;8.646;2023-10-13T03:17:46;15.30;99.90
31542;DHT22;18152;49.986;8.646;2023-10-13T03:20:16;15.30;99.90
31542;DHT22;18152;49.986;8.646;2023-10-13T03:22:48;15.30;99.90
31542;DHT22;18152;49.986;8.646;2023-10-13T03:25:17;15.30;99.90
31542;DHT22;18152;49.986;8.646;2023-10-13T03:27:49;15.30;99.90
31542;DHT22;18152;49.986;8.646;2023-10-13T03:30:18;15.30;99.90
31542;DHT22;18152;49.986;8.646;2023-10-13T03:32:45;15.30;99.90
31542;DHT22;18152;49.986;8.646;2023-10-13T03:35:12;15.30;99.90
31542;DHT22;18152;49.986;8.646;2023-10-13T03:37:51;15.30;99.90
31542;DHT22;18152;49.986;8.646;2023-10-13T03:40:17;15.40;99.90
31542;DHT22;18152;49.986;8.646;2023-10-13T03:43:03;15.30;99.90
31542;DHT22;18152;49.986;8.646;2023-10-13T03:45:45;15.30;99.90
31542;DHT22;18152;49.986;8.646;2023-10-13T03:48:15;15.20;99.90
31542;DHT22;18152;49.986;8.646;2023-10-13T03:50:50;15.20;99.90
31542;DHT22;18152;49.986;8.646;2023-10-13T03:53:35;15.20;99.90
31542;DHT22;18152;49.986;8.646;2023-10-13T03:56:06;15.30;99.90
31542;DHT22;18152;49.986;8.646;2023-10-13T03:58:38;15.30;99.90
31542;DHT22;18152;49.986;8.646;2023-10-13T04:01:04;15.40;99.90
31542;DHT22;18152;49.986;8.646;2023-10-13T04:03:35;15.40;99.90
31542;DHT22;18152;49.986;8.646;2023-10-13T04:06:04;15.40;99.90
31542;DHT22;18152;49.986;8.646;2023-10-13T04:08:33;15.40;99.90
31542;DHT22;18152;49.986;8.646;2023-10-13T04:11:08;15.40;99.90
31542;DHT22;18152;49.986;8.646;2023-10-13T04:13:52;15.50;99.90
31542;DHT22;18152;49.986;8.646;2023-10-13T04:16:36;15.40;99.90
31542;DHT22;18152;49.986;8.646;2023-10-13T04:19:03;15.50;99.90
31542;DHT22;18152;49.986;8.646;2023-10-13T04:21:29;15.40;99.90
31542;DHT22;18152;49.986;8.646;2023-10-13T04:24:13;15.40;99.90
31542;DHT22;18152;49.986;8.646;2023-10-13T04:26:49;15.30;99.90
31542;DHT22;18152;49.986;8.646;2023-10-13T04:29:33;15.40;99.90
31542;DHT22;18152;49.986;8.646;2023-10-13T04:32:12;15.40;99.90
31542;DHT22;18152;49.986;8.646;2023-10-13T04:34:44;15.50;99.90
31542;DHT22;18152;49.986;8.646;2023-10-13T04:37:16;15.50;99.90
31542;DHT22;18152;49.986;8.646;2023-10-13T04:39:55;15.50;99.90
31542;DHT22;18152;49.986;8.646;2023-10-13T04:42:36;15.50;99.90
31542;DHT22;18152;49.986;8.646;2023-10-13T04:45:08;15.60;99.90
31542;DHT22;18152;49.986;8.646;2023-10-13T04:47:53;15.60;99.90
31542;DHT22;18152;49.986;8.646;2023-10-13T04:50:23;15.60;99.90
31542;DHT22;18152;49.986;8.646;2023-10-13T04:53:00;15.60;99.90
31542;DHT22;18152;49.986;8.646;2023-10-13T04:55:38;15.60;99.90
31542;DHT22;18152;49.986;8.646;2023-10-13T04:58:24;15.60;99.90
31542;DHT22;18152;49.986;8.646;2023-10-13T05:01:13;15.60;99.90
31542;DHT22;18152;49.986;8.646;2023-10-13T05:03:50;15.70;99.90
31542;DHT22;18152;49.986;8.646;2023-10-13T05:06:34;15.70;99.90
31542;DHT22;18152;49.986;8.646;2023-10-13T05:09:05;15.70;99.90
31542;DHT22;18152;49.986;8.646;2023-10-13T05:11:49;15.60;99.90
31542;DHT22;18152;49.986;8.646;2023-10-13T05:14:34;15.60;99.90
31542;DHT22;18152;49.986;8.646;2023-10-13T05:17:18;15.60;99.90
31542;DHT22;18152;49.986;8.646;2023-10-13T05:20:02;15.60;99.90
31542;DHT22;18152;49.986;8.646;2023-10-13T05:22:47;15.60;99.90
31542;DHT22;18152;49.986;8.646;2023-10-13T05:25:35;15.60;99.90
31542;DHT22;18152;49.986;8.646;2023-10-13T05:28:19;15.60;99.90
31542;DHT22;18152;49.986;8.646;2023-10-13T05:31:03;15.50;99.90
31542;DHT22;18152;49.986;8.646;2023-10-13T05:33:47;15.50;99.90
31542;DHT22;18152;49.986;8.646;2023-10-13T05:36:33;15.50;99.90
31542;DHT22;18152;49.986;8.646;2023-10-13T05:39:17;15.50;99.90
31542;DHT22;18152;49.986;8.646;2023-10-13T05:42:02;15.50;99.90
31542;DHT22;18152;49.986;8.646;2023-10-13T05:44:46;15.50;99.90
31542;DHT22;18152;49.986;8.646;2023-10-13T05:47:30;15.40;99.90
31542;DHT22;18152;49.986;8.646;2023-10-13T05:50:09;15.40;99.90
31542;DHT22;18152;49.986;8.646;2023-10-13T05:52:45;15.40;99.90
31542;DHT22;18152;49.986;8.646;2023-10-13T05:55:30;15.30;99.90
31542;DHT22;18152;49.986;8.646;2023-10-13T05:58:15;15.40;99.90
31542;DHT22;18152;49.986;8.646;2023-10-13T06:01:00;15.40;99.90
31542;DHT22;18152;49.986;8.646;2023-10-13T06:03:44;15.30;99.90
31542;DHT22;18152;49.986;8.646;2023-10-13T06:06:28;15.40;99.90
31542;DHT22;18152;49.986;8.646;2023-10-13T06:09:12;15.40;99.90
31542;DHT22;18152;49.986;8.646;2023-10-13T06:11:57;15.50;99.90
31542;DHT22;18152;49.986;8.646;2023-10-13T06:14:46;15.50;99.90
31542;DHT22;18152;49.986;8.646;2023-10-13T06:17:30;15.50;99.90
31542;DHT22;18152;49.986;8.646;2023-10-13T06:20:14;15.60;99.90
31542;DHT22;18152;49.986;8.646;2023-10-13T06:22:58;15.60;99.90
31542;DHT22;18152;49.986;8.646;2023-10-13T06:25:42;15.70;99.90
31542;DHT22;18152;49.986;8.646;2023-10-13T06:28:26;15.80;99.90
31542;DHT22;18152;49.986;8.646;2023-10-13T06:31:08;15.90;99.90
31542;DHT22;18152;49.986;8.646;2023-10-13T06:33:38;15.90;99.90
31542;DHT22;18152;49.986;8.646;2023-10-13T06:36:09;16.00;99.90
31542;DHT22;18152;49.986;8.646;2023-10-13T06:38:35;16.00;99.90
31542;DHT22;18152;49.986;8.646;2023-10-13T06:41:05;16.10;99.90
31542;DHT22;18152;49.986;8.646;2023-10-13T06:43:35;16.20;99.90
31542;DHT22;18152;49.986;8.646;2023-10-13T06:46:09;16.30;99.90
31542;DHT22;18152;49.986;8.646;2023-10-13T06:48:40;16.40;99.90
31542;DHT22;18152;49.986;8.646;2023-10-13T06:51:06;16.40;99.90
31542;DHT22;18152;49.986;8.646;2023-10-13T06:53:47;16.50;99.90
31542;DHT22;18152;49.986;8.646;2023-10-13T06:56:16;16.60;99.90
31542;DHT22;18152;49.986;8.646;2023-10-13T06:58:53;16.70;99.90
31542;DHT22;18152;49.986;8.646;2023-10-13T07:01:25;16.80;99.90
31542;DHT22;18152;49.986;8.646;2023-10-13T07:03:51;16.90;99.90
31542;DHT22;18152;49.986;8.646;2023-10-13T07:06:22;17.00;99.90
31542;DHT22;18152;49.986;8.646;2023-10-13T07:08:48;17.10;99.90
31542;DHT22;18152;49.986;8.646;2023-10-13T07:11:27;17.20;99.90
31542;DHT22;18152;49.986;8.646;2023-10-13T07:14:03;17.30;99.90
31542;DHT22;18152;49.986;8.646;2023-10-13T07:16:55;17.20;99.90
31542;DHT22;18152;49.986;8.646;2023-10-13T07:19:24;17.40;99.90
31542;DHT22;18152;49.986;8.646;2023-10-13T07:21:54;17.50;99.90
31542;DHT22;18152;49.986;8.646;2023-10-13T07:24:27;17.50;99.90
31542;DHT22;18152;49.986;8.646;2023-10-13T07:26:58;17.50;99.90
31542;DHT22;18152;49.986;8.646;2023-10-13T07:29:33;17.50;99.90
31542;DHT22;18152;49.986;8.646;2023-10-13T07:32:02;17.50;99.90
31542;DHT22;18152;49.986;8.646;2023-10-13T07:34:38;17.70;99.90
31542;DHT22;18152;49.986;8.646;2023-10-13T07:37:05;18.00;99.90
31542;DHT22;18152;49.986;8.646;2023-10-13T07:39:34;18.10;99.90
31542;DHT22;18152;49.986;8.646;2023-10-13T07:42:00;18.20;99.90
31542;DHT22;18152;49.986;8.646;2023-10-13T07:44:40;18.30;99.90
31542;DHT22;18152;49.986;8.646;2023-10-13T07:47:11;18.10;99.90
31542;DHT22;18152;49.986;8.646;2023-10-13T07:49:37;18.10;99.90
31542;DHT22;18152;49.986;8.646;2023-10-13T07:52:08;18.10;99.90
31542;DHT22;18152;49.986;8.646;2023-10-13T07:54:46;18.10;99.90
31542;DHT22;18152;49.986;8.646;2023-10-13T07:57:15;18.10;99.90
31542;DHT22;18152;49.986;8.646;2023-10-13T07:59:42;18.10;99.90
31542;DHT22;18152;49.986;8.646;2023-10-13T08:02:14;18.30;99.90
31542;DHT22;18152;49.986;8.646;2023-10-13T08:04:40;18.30;99.90
31542;DHT22;18152;49.986;8.646;2023-10-13T08:07:06;18.40;99.90
31542;DHT22;18152;49.986;8.646;2023-10-13T08:09:41;18.50;99.90
31542;DHT22;18152;49.986;8.646;2023-10-13T08:12:08;18.50;99.90
31542;DHT22;18152;49.986;8.646;2023-10-13T08:14:38;18.40;99.90
31542;DHT22;18152;49.986;8.646;2023-10-13T08:17:07;18.50;99.90
31542;DHT22;18152;49.986;8.646;2023-10-13T08:19:35;18.70;99.90
31542;DHT22;18152;49.986;8.646;2023-10-13T08:22:11;18.80;99.90
31542;DHT22;18152;49.986;8.646;2023-10-13T08:24:50;19.00;99.90
31542;DHT22;18152;49.986;8.646;2023-10-13T08:27:20;19.10;99.90
31542;DHT22;18152;49.986;8.646;2023-10-13T08:30:00;19.10;99.90
31542;DHT22;18152;49.986;8.646;2023-10-13T08:32:44;19.10;99.90
31542;DHT22;18152;49.986;8.646;2023-10-13T08:35:20;19.50;99.90
31542;DHT22;18152;49.986;8.646;2023-10-13T08:37:55;19.70;99.90
31542;DHT22;18152;49.986;8.646;2023-10-13T08:40:22;19.80;99.90
31542;DHT22;18152;49.986;8.646;2023-10-13T08:43:11;19.90;99.90
31542;DHT22;18152;49.986;8.646;2023-10-13T08:45:38;20.50;99.90
31542;DHT22;18152;49.986;8.646;2023-10-13T08:48:05;21.00;99.90
31542;DHT22;18152;49.986;8.646;2023-10-13T08:56:03;21.20;99.90
31542;DHT22;18152;49.986;8.646;2023-10-13T08:58:33;21.30;99.90
31542;DHT22;18152;49.986;8.646;2023-10-13T09:01:27;21.00;99.90
31542;DHT22;18152;49.986;8.646;2023-10-13T09:04:19;21.20;99.90
31542;DHT22;18152;49.986;8.646;2023-10-13T09:07:01;21.00;99.90
31542;DHT22;18152;49.986;8.646;2023-10-13T09:09:31;20.70;99.90
31542;DHT22;18152;49.986;8.646;2023-10-13T09:14:52;20.70;99.90
31542;DHT22;18152;49.986;8.646;2023-10-13T09:17:29;20.70;99.90
31542;DHT22;18152;49.986;8.646;2023-10-13T09:20:02;20.70;99.90
31542;DHT22;18152;49.986;8.646;2023-10-13T09:22:46;20.70;99.90
31542;DHT22;18152;49.986;8.646;2023-10-13T09:25:30;21.20;99.90
31542;DHT22;18152;49.986;8.646;2023-10-13T09:27:59;22.20;99.90
31542;DHT22;18152;49.986;8.646;2023-10-13T09:30:26;22.80;99.90
31542;DHT22;18152;49.986;8.646;2023-10-13T09:33:01;23.80;99.90
31542;DHT22;18152;49.986;8.646;2023-10-13T09:35:27;24.90;99.90
31542;DHT22;18152;49.986;8.646;2023-10-13T09:37:53;25.40;99.90
31542;DHT22;18152;49.986;8.646;2023-10-13T09:40:22;25.60;99.90
31542;DHT22;18152;49.986;8.646;2023-10-13T09:42:53;25.70;99.90
31542;DHT22;18152;49.986;8.646;2023-10-13T09:45:25;25.90;99.90
31542;DHT22;18152;49.986;8.646;2023-10-13T09:47:53;24.80;99.90
31542;DHT22;18152;49.986;8.646;2023-10-13T09:50:19;24.40;99.90
31542;DHT22;18152;49.986;8.646;2023-10-13T09:52:51;24.30;99.90
31542;DHT22;18152;49.986;8.646;2023-10-13T09:55:27;25.30;99.90
31542;DHT22;18152;49.986;8.646;2023-10-13T09:58:07;25.80;98.60
31542;DHT22;18152;49.986;8.646;2023-10-13T10:00:48;26.20;99.70
31542;DHT22;18152;49.986;8.646;2023-10-13T10:03:23;26.20;99.90
31542;DHT22;18152;49.986;8.646;2023-10-13T10:06:02;26.40;99.90
31542;DHT22;18152;49.986;8.646;2023-10-13T10:08:43;26.60;98.40
31542;DHT22;18152;49.986;8.646;2023-10-13T10:14:09;26.80;97.50
31542;DHT22;18152;49.986;8.646;2023-10-13T10:19:53;27.60;92.60
31542;DHT22;18152;49.986;8.646;2023-10-13T10:22:40;28.00;94.60
31542;DHT22;18152;49.986;8.646;2023-10-13T10:25:10;27.50;94.00
31542;DHT22;18152;49.986;8.646;2023-10-13T10:27:58;27.50;95.00
31542;DHT22;18152;49.986;8.646;2023-10-13T10:30:28;27.90;95.10
31542;DHT22;18152;49.986;8.646;2023-10-13T10:32:56;27.20;93.00
31542;DHT22;18152;49.986;8.646;2023-10-13T10:35:25;26.20;95.00
31542;DHT22;18152;49.986;8.646;2023-10-13T10:38:11;26.30;97.20
31542;DHT22;18152;49.986;8.646;2023-10-13T10:45:53;25.10;96.20
31542;DHT22;18152;49.986;8.646;2023-10-13T10:48:25;25.00;96.90
31542;DHT22;18152;49.986;8.646;2023-10-13T10:50:57;25.00;98.30
31542;DHT22;18152;49.986;8.646;2023-10-13T10:53:24;24.80;99.30
31542;DHT22;18152;49.986;8.646;2023-10-13T10:56:06;24.60;99.10
31542;DHT22;18152;49.986;8.646;2023-10-13T10:58:42;24.30;98.00
31542;DHT22;18152;49.986;8.646;2023-10-13T11:01:10;24.20;98.20
31542;DHT22;18152;49.986;8.646;2023-10-13T11:03:37;24.10;99.80
31542;DHT22;18152;49.986;8.646;2023-10-13T11:06:04;23.90;98.10
31542;DHT22;18152;49.986;8.646;2023-10-13T11:08:30;24.30;98.00
31542;DHT22;18152;49.986;8.646;2023-10-13T11:11:02;24.40;98.50
31542;DHT22;18152;49.986;8.646;2023-10-13T11:13:41;24.50;97.20
31542;DHT22;18152;49.986;8.646;2023-10-13T11:16:20;24.90;98.70
31542;DHT22;18152;49.986;8.646;2023-10-13T11:19:08;24.40;97.90
31542;DHT22;18152;49.986;8.646;2023-10-13T11:21:37;24.30;99.90
31542;DHT22;18152;49.986;8.646;2023-10-13T11:24:03;24.30;98.90
31542;DHT22;18152;49.986;8.646;2023-10-13T11:26:37;24.30;99.90
31542;DHT22;18152;49.986;8.646;2023-10-13T11:29:15;24.40;98.40
31542;DHT22;18152;49.986;8.646;2023-10-13T11:31:44;24.40;99.90
31542;DHT22;18152;49.986;8.646;2023-10-13T11:34:12;24.50;98.40
31542;DHT22;18152;49.986;8.646;2023-10-13T11:36:42;24.30;96.70
31542;DHT22;18152;49.986;8.646;2023-10-13T11:39:08;24.30;98.60
31542;DHT22;18152;49.986;8.646;2023-10-13T11:41:33;24.60;97.40
31542;DHT22;18152;49.986;8.646;2023-10-13T11:44:01;24.60;98.80
31542;DHT22;18152;49.986;8.646;2023-10-13T11:46:38;24.80;97.00
31542;DHT22;18152;49.986;8.646;2023-10-13T11:49:10;25.00;97.50
31542;DHT22;18152;49.986;8.646;2023-10-13T11:51:47;25.20;96.20
31542;DHT22;18152;49.986;8.646;2023-10-13T11:56:46;25.40;97.00
31542;DHT22;18152;49.986;8.646;2023-10-13T11:59:12;25.30;99.00
31542;DHT22;18152;49.986;8.646;2023-10-13T12:01:46;25.30;96.20
31542;DHT22;18152;49.986;8.646;2023-10-13T12:04:31;25.50;97.50
31542;DHT22;18152;49.986;8.646;2023-10-13T12:07:10;25.60;97.30
31542;DHT22;18152;49.986;8.646;2023-10-13T12:09:54;26.10;95.70
31542;DHT22;18152;49.986;8.646;2023-10-13T12:12:20;27.00;95.90
31542;DHT22;18152;49.986;8.646;2023-10-13T12:14:46;27.20;94.30
31542;DHT22;18152;49.986;8.646;2023-10-13T12:17:26;27.30;96.90
31542;DHT22;18152;49.986;8.646;2023-10-13T12:19:59;27.60;95.00
31542;DHT22;18152;49.986;8.646;2023-10-13T12:22:25;27.30;91.50
31542;DHT22;18152;49.986;8.646;2023-10-13T12:24:56;27.30;92.90
31542;DHT22;18152;49.986;8.646;2023-10-13T12:27:21;28.10;93.00
31542;DHT22;18152;49.986;8.646;2023-10-13T12:30:08;27.90;94.80
31542;DHT22;18152;49.986;8.646;2023-10-13T12:32:38;27.90;89.80
31542;DHT22;18152;49.986;8.646;2023-10-13T12:35:10;27.30;91.50
31542;DHT22;18152;49.986;8.646;2023-10-13T12:37:35;26.70;94.70
31542;DHT22;18152;49.986;8.646;2023-10-13T12:40:04;26.60;96.00
31542;DHT22;18152;49.986;8.646;2023-10-13T12:42:49;26.30;95.40
31542;DHT22;18152;49.986;8.646;2023-10-13T12:45:32;26.00;94.40
31542;DHT22;18152;49.986;8.646;2023-10-13T12:48:17;25.70;96.20
31542;DHT22;18152;49.986;8.646;2023-10-13T12:51:01;25.50;94.70
31542;DHT22;18152;49.986;8.646;2023-10-13T12:53:48;26.60;94.30
31542;DHT22;18152;49.986;8.646;2023-10-13T12:56:15;27.60;92.40
31542;DHT22;18152;49.986;8.646;2023-10-13T12:58:51;28.20;90.40
31542;DHT22;18152;49.986;8.646;2023-10-13T13:01:21;27.80;93.30
31542;DHT22;18152;49.986;8.646;2023-10-13T13:03:47;28.30;93.00
31542;DHT22;18152;49.986;8.646;2023-10-13T13:06:18;28.40;90.50
31542;DHT22;18152;49.986;8.646;2023-10-13T13:08:53;28.10;91.00
31542;DHT22;18152;49.986;8.646;2023-10-13T13:11:19;27.40;92.00
31542;DHT22;18152;49.986;8.646;2023-10-13T13:13:45;27.10;92.20
31542;DHT22;18152;49.986;8.646;2023-10-13T13:16:14;27.00;93.50
31542;DHT22;18152;49.986;8.646;2023-10-13T13:18:39;27.50;90.20
31542;DHT22;18152;49.986;8.646;2023-10-13T13:21:05;28.00;90.60
31542;DHT22;18152;49.986;8.646;2023-10-13T13:23:37;28.00;92.90
31542;DHT22;18152;49.986;8.646;2023-10-13T13:26:05;27.40;90.10
31542;DHT22;18152;49.986;8.646;2023-10-13T13:28:43;26.50;94.20
31542;DHT22;18152;49.986;8.646;2023-10-13T13:31:09;25.80;92.90
31542;DHT22;18152;49.986;8.646;2023-10-13T13:33:38;25.70;93.20
31542;DHT22;18152;49.986;8.646;2023-10-13T13:36:09;25.70;96.80
31542;DHT22;18152;49.986;8.646;2023-10-13T13:38:39;26.90;95.70
31542;DHT22;18152;49.986;8.646;2023-10-13T13:41:12;27.70;93.10
31542;DHT22;18152;49.986;8.646;2023-10-13T13:43:41;28.30;90.20
31542;DHT22;18152;49.986;8.646;2023-10-13T13:46:20;29.00;90.00
31542;DHT22;18152;49.986;8.646;2023-10-13T13:48:50;29.20;92.10
31542;DHT22;18152;49.986;8.646;2023-10-13T13:51:17;29.50;88.80
31542;DHT22;18152;49.986;8.646;2023-10-13T13:53:52;29.00;82.80
31542;DHT22;18152;49.986;8.646;2023-10-13T13:56:18;27.70;87.60
31542;DHT22;18152;49.986;8.646;2023-10-13T13:58:50;27.20;88.80
31542;DHT22;18152;49.986;8.646;2023-10-13T14:01:16;26.90;85.30
31542;DHT22;18152;49.986;8.646;2023-10-13T14:03:48;26.60;86.50
31542;DHT22;18152;49.986;8.646;2023-10-13T14:06:17;26.40;87.40
31542;DHT22;18152;49.986;8.646;2023-10-13T14:08:54;26.10;90.10
31542;DHT22;18152;49.986;8.646;2023-10-13T14:11:24;25.80;87.60
31542;DHT22;18152;49.986;8.646;2023-10-13T14:14:15;25.50;89.60
31542;DHT22;18152;49.986;8.646;2023-10-13T14:16:50;25.50;87.30
31542;DHT22;18152;49.986;8.646;2023-10-13T14:19:16;25.90;83.80
31542;DHT22;18152;49.986;8.646;2023-10-13T14:21:52;25.50;82.10
31542;DHT22;18152;49.986;8.646;2023-10-13T14:24:19;25.10;85.60
31542;DHT22;18152;49.986;8.646;2023-10-13T14:26:56;24.80;83.40
31542;DHT22;18152;49.986;8.646;2023-10-13T14:29:22;24.70;88.40
31542;DHT22;18152;49.986;8.646;2023-10-13T14:31:52;25.00;89.60
31542;DHT22;18152;49.986;8.646;2023-10-13T14:34:17;24.70;90.40
31542;DHT22;18152;49.986;8.646;2023-10-13T14:36:43;24.60;88.40
31542;DHT22;18152;49.986;8.646;2023-10-13T14:39:14;24.20;89.90
31542;DHT22;18152;49.986;8.646;2023-10-13T14:41:40;24.00;91.80
31542;DHT22;18152;49.986;8.646;2023-10-13T14:44:06;23.60;95.40
31542;DHT22;18152;49.986;8.646;2023-10-13T14:46:32;23.40;94.30
31542;DHT22;18152;49.986;8.646;2023-10-13T14:49:02;23.40;93.20
31542;DHT22;18152;49.986;8.646;2023-10-13T14:51:28;23.40;94.80
31542;DHT22;18152;49.986;8.646;2023-10-13T14:53:54;23.50;95.80
31542;DHT22;18152;49.986;8.646;2023-10-13T14:56:22;23.60;95.80
31542;DHT22;18152;49.986;8.646;2023-10-13T14:58:52;23.60;92.50
31542;DHT22;18152;49.986;8.646;2023-10-13T15:01:19;23.60;92.00
31542;DHT22;18152;49.986;8.646;2023-10-13T15:03:50;23.40;91.30
31542;DHT22;18152;49.986;8.646;2023-10-13T15:06:20;23.20;91.60
31542;DHT22;18152;49.986;8.646;2023-10-13T15:08:49;23.00;97.30
31542;DHT22;18152;49.986;8.646;2023-10-13T15:11:15;22.90;95.70
31542;DHT22;18152;49.986;8.646;2023-10-13T15:13:44;22.80;93.00
31542;DHT22;18152;49.986;8.646;2023-10-13T15:16:16;22.70;94.80
31542;DHT22;18152;49.986;8.646;2023-10-13T15:18:44;22.50;95.30
31542;DHT22;18152;49.986;8.646;2023-10-13T15:21:10;22.80;92.20
31542;DHT22;18152;49.986;8.646;2023-10-13T15:23:36;22.80;91.00
31542;DHT22;18152;49.986;8.646;2023-10-13T15:26:08;22.80;93.20
31542;DHT22;18152;49.986;8.646;2023-10-13T15:28:40;22.80;95.50
31542;DHT22;18152;49.986;8.646;2023-10-13T15:31:15;22.70;92.60
31542;DHT22;18152;49.986;8.646;2023-10-13T15:34:06;22.80;91.60
31542;DHT22;18152;49.986;8.646;2023-10-13T15:36:41;22.90;92.40
31542;DHT22;18152;49.986;8.646;2023-10-13T15:39:10;22.80;92.20
31542;DHT22;18152;49.986;8.646;2023-10-13T15:41:36;22.50;92.80
31542;DHT22;18152;49.986;8.646;2023-10-13T15:44:06;22.70;91.30
31542;DHT22;18152;49.986;8.646;2023-10-13T15:46:36;22.60;91.30
31542;DHT22;18152;49.986;8.646;2023-10-13T15:49:02;22.40;91.60
31542;DHT22;18152;49.986;8.646;2023-10-13T15:51:32;22.40;92.00
31542;DHT22;18152;49.986;8.646;2023-10-13T15:53:58;22.20;92.60
31542;DHT22;18152;49.986;8.646;2023-10-13T15:56:25;22.40;93.70
31542;DHT22;18152;49.986;8.646;2023-10-13T15:58:51;22.30;91.50
31542;DHT22;18152;49.986;8.646;2023-10-13T16:01:16;22.30;92.20
31542;DHT22;18152;49.986;8.646;2023-10-13T16:03:45;22.40;91.40
31542;DHT22;18152;49.986;8.646;2023-10-13T16:06:18;22.30;92.50
31542;DHT22;18152;49.986;8.646;2023-10-13T16:08:44;22.30;93.50
31542;DHT22;18152;49.986;8.646;2023-10-13T16:11:14;22.10;95.10
31542;DHT22;18152;49.986;8.646;2023-10-13T16:13:43;21.80;94.10
31542;DHT22;18152;49.986;8.646;2023-10-13T16:16:19;21.80;96.10
31542;DHT22;18152;49.986;8.646;2023-10-13T16:18:48;21.50;99.40
31542;DHT22;18152;49.986;8.646;2023-10-13T16:21:14;21.40;97.90
31542;DHT22;18152;49.986;8.646;2023-10-13T16:23:41;21.20;97.30
31542;DHT22;18152;49.986;8.646;2023-10-13T16:26:10;21.40;94.60
31542;DHT22;18152;49.986;8.646;2023-10-13T16:28:36;21.30;97.80